Time;durP1;ratioP1;P1;durP2;ratioP2;P2;SDS_P1;SDS_P2;PMS_P1;PMS_P2;Temp;Humidity;BMP_temperature;BMP_pressure;BME280_temperature;BME280_humidity;BME280_pressure;Samples;Min_cycle;Max_cycle;Signal;HPM_P1;HPM_P2
2020/12/20 00:01:24;;;;;;;10.07;5.72;;;;;;;;;;10359338;28;20028;-65
2020/12/20 00:06:22;;;;;;;9.03;4.40;;;;;;;;;;10365209;28;20044;-64
2020/12/20 00:11:19;;;;;;;9.17;5.10;;;;;;;;;;10351824;28;20708;-61
2020/12/20 00:16:18;;;;;;;13.73;6.27;;;;;;;;;;10372216;28;20043;-61
2020/12/20 00:21:15;;;;;;;;;;;;;;;;;;10359713;28;20052;-62
2020/12/20 00:26:13;;;;;;;10.75;5.47;;;;;;;;;;10369257;28;19916;-62
2020/12/20 00:31:15;;;;;;;14.33;5.80;;;;;;;;;;10363822;28;20037;-62
2020/12/20 00:36:13;;;;;;;10.93;5.30;;;;;;;;;;10366006;28;20076;-61
2020/12/20 00:41:10;;;;;;;7.30;4.17;;;;;;;;;;10366404;28;20064;-61
2020/12/20 00:46:07;;;;;;;10.60;5.37;;;;;;;;;;10371038;28;20043;-65
2020/12/20 00:51:06;;;;;;;9.73;4.30;;;;;;;;;;10349950;28;20123;-62
2020/12/20 00:56:05;;;;;;;9.50;5.95;;;;;;;;;;10372537;28;20033;-62
2020/12/20 01:01:04;;;;;;;7.20;4.63;;;;;;;;;;10370271;28;20574;-62
2020/12/20 01:06:01;;;;;;;5.53;3.47;;;;;;;;;;10362194;28;20020;-62
2020/12/20 01:10:59;;;;;;;6.93;4.33;;;;;;;;;;10370575;28;20495;-64
2020/12/20 01:15:57;;;;;;;8.27;4.07;;;;;;;;;;10369883;28;20726;-62
2020/12/20 01:20:54;;;;;;;9.87;4.23;;;;;;;;;;10367027;28;20517;-62
2020/12/20 01:25:53;;;;;;;;;;;;;;;;;;10362268;28;20406;-65
2020/12/20 01:30:52;;;;;;;11.37;4.80;;;;;;;;;;10369619;28;19912;-64
2020/12/20 01:36:02;;;;;;;10.60;4.75;;;;;;;;;;10359553;28;20264;-63
2020/12/20 01:40:59;;;;;;;6.75;4.43;;;;;;;;;;10361109;28;20036;-64
2020/12/20 01:45:57;;;;;;;6.13;3.70;;;;;;;;;;10368291;28;20040;-63
2020/12/20 01:50:55;;;;;;;5.13;3.15;;;;;;;;;;10365466;28;20025;-66
2020/12/20 01:55:58;;;;;;;7.10;2.87;;;;;;;;;;10349451;28;20545;-62
2020/12/20 02:00:55;;;;;;;7.47;3.78;;;;;;;;;;10332731;28;20408;-65
2020/12/20 02:06:14;;;;;;;8.45;4.03;;;;;;;;;;10353990;28;20040;-62
2020/12/20 02:11:15;;;;;;;11.23;4.82;;;;;;;;;;10360188;28;20036;-63
2020/12/20 02:16:17;;;;;;;10.02;3.67;;;;;;;;;;10356240;28;20406;-63
2020/12/20 02:21:17;;;;;;;8.25;5.38;;;;;;;;;;10350833;28;20129;-62
2020/12/20 02:26:20;;;;;;;13.32;3.20;;;;;;;;;;10351838;28;20036;-65
2020/12/20 02:31:18;;;;;;;8.65;5.18;;;;;;;;;;10352166;28;20044;-65
2020/12/20 02:36:15;;;;;;;6.85;4.03;;;;;;;;;;10355917;28;20063;-62
2020/12/20 02:41:18;;;;;;;5.78;3.65;;;;;;;;;;10301769;28;20041;-62
2020/12/20 02:46:18;;;;;;;9.20;5.07;;;;;;;;;;10368340;28;20529;-61
2020/12/20 02:51:37;;;;;;;7.57;4.28;;;;;;;;;;10356122;28;20114;-65
2020/12/20 02:56:34;;;;;;;7.32;4.03;;;;;;;;;;10356795;28;20039;-62
2020/12/20 03:01:33;;;;;;;10.20;5.57;;;;;;;;;;10370340;28;20041;-64
2020/12/20 03:06:33;;;;;;;7.95;4.82;;;;;;;;;;10355770;28;20432;-62
2020/12/20 03:11:34;;;;;;;7.50;4.40;;;;;;;;;;10336144;28;20560;-65
2020/12/20 03:16:32;;;;;;;8.32;4.60;;;;;;;;;;10349207;28;20509;-61
2020/12/20 03:21:29;;;;;;;7.87;4.30;;;;;;;;;;10361975;28;20035;-63
2020/12/20 03:26:49;;;;;;;6.68;3.75;;;;;;;;;;10366559;28;20028;-64
2020/12/20 03:32:04;;;;;;;4.05;2.72;;;;;;;;;;10370986;28;20037;-65
2020/12/20 03:37:22;;;;;;;4.07;2.55;;;;;;;;;;10361197;28;20477;-66
2020/12/20 03:42:26;;;;;;;5.70;3.72;;;;;;;;;;10348202;28;20380;-65
2020/12/20 03:47:24;;;;;;;5.17;3.57;;;;;;;;;;10357939;28;20040;-64
2020/12/20 03:52:21;;;;;;;12.23;5.07;;;;;;;;;;10353716;28;20037;-65
2020/12/20 03:57:41;;;;;;;8.00;3.95;;;;;;;;;;10363294;28;20044;-65
2020/12/20 04:02:40;;;;;;;;;;;;;;;;;;10363231;28;20075;-65
2020/12/20 04:07:37;;;;;;;8.77;4.32;;;;;;;;;;10352686;28;20011;-64
2020/12/20 04:12:35;;;;;;;4.03;3.27;;;;;;;;;;10328621;28;20503;-66
2020/12/20 04:17:33;;;;;;;6.13;3.37;;;;;;;;;;10328303;28;20037;-67
2020/12/20 04:22:31;;;;;;;4.72;2.72;;;;;;;;;;10364484;28;20039;-66
2020/12/20 04:27:48;;;;;;;3.75;2.70;;;;;;;;;;10361605;28;20041;-66
2020/12/20 04:32:46;;;;;;;10.20;4.82;;;;;;;;;;10367234;28;20075;-65
2020/12/20 04:37:43;;;;;;;9.20;4.53;;;;;;;;;;10351814;28;20044;-65
2020/12/20 04:43:03;;;;;;;6.03;4.07;;;;;;;;;;10344360;28;20041;-63
2020/12/20 04:48:02;;;;;;;9.13;3.40;;;;;;;;;;10358561;28;20558;-64
2020/12/20 04:53:06;;;;;;;5.03;3.53;;;;;;;;;;10354566;28;20476;-65
2020/12/20 04:58:26;;;;;;;6.45;3.22;;;;;;;;;;10358440;28;20576;-66
2020/12/20 05:03:28;;;;;;;15.48;4.93;;;;;;;;;;10354621;28;20039;-66
2020/12/20 05:08:27;;;;;;;11.20;4.40;;;;;;;;;;10341306;28;20028;-66
2020/12/20 05:13:37;;;;;;;3.40;2.78;;;;;;;;;;10345422;28;20037;-65
2020/12/20 05:18:35;;;;;;;6.93;4.72;;;;;;;;;;10332826;28;20029;-65
2020/12/20 05:23:41;;;;;;;5.95;4.43;;;;;;;;;;10352061;28;20040;-66
2020/12/20 05:29:06;;;;;;;8.45;4.05;;;;;;;;;;10355603;28;20071;-63
2020/12/20 05:34:04;;;;;;;8.45;3.35;;;;;;;;;;10334866;28;20056;-62
2020/12/20 05:39:16;;;;;;;5.78;3.63;;;;;;;;;;10363882;28;20033;-63
2020/12/20 05:44:20;;;;;;;11.40;5.85;;;;;;;;;;10343798;28;20123;-62
2020/12/20 05:49:21;;;;;;;10.27;6.35;;;;;;;;;;10348979;28;20119;-62
2020/12/20 05:54:20;;;;;;;7.38;4.40;;;;;;;;;;10347090;28;20446;-62
2020/12/20 05:59:18;;;;;;;8.32;3.95;;;;;;;;;;10322773;28;20036;-62
2020/12/20 06:04:15;;;;;;;9.30;4.82;;;;;;;;;;10317075;28;20040;-62
2020/12/20 06:09:14;;;;;;;9.33;4.50;;;;;;;;;;10327328;28;20039;-63
2020/12/20 06:14:13;;;;;;;13.05;7.20;;;;;;;;;;10323702;28;20033;-63
2020/12/20 06:19:19;;;;;;;10.23;5.80;;;;;;;;;;10326554;28;20123;-62
2020/12/20 06:24:18;;;;;;;7.95;5.13;;;;;;;;;;10326603;28;20063;-62
2020/12/20 06:29:18;;;;;;;7.57;5.25;;;;;;;;;;10320157;28;20075;-63
2020/12/20 06:34:16;;;;;;;10.00;4.90;;;;;;;;;;10325122;28;20041;-63
2020/12/20 06:39:16;;;;;;;11.27;5.70;;;;;;;;;;10360086;28;20510;-64
2020/12/20 06:44:14;;;;;;;12.52;4.97;;;;;;;;;;10344307;28;20059;-63
2020/12/20 06:49:31;;;;;;;11.77;5.33;;;;;;;;;;10341523;28;20033;-61
2020/12/20 06:54:28;;;;;;;11.50;6.28;;;;;;;;;;10354192;28;20041;-63
2020/12/20 06:59:42;;;;;;;9.53;6.23;;;;;;;;;;10354600;28;20036;-63
2020/12/20 07:04:40;;;;;;;11.40;6.25;;;;;;;;;;10353930;28;20032;-62
2020/12/20 07:09:37;;;;;;;9.97;5.37;;;;;;;;;;10362470;28;20047;-63
2020/12/20 07:14:35;;;;;;;12.27;5.60;;;;;;;;;;10355498;28;20295;-63
2020/12/20 07:19:32;;;;;;;11.60;6.20;;;;;;;;;;10348023;28;20528;-63
2020/12/20 07:24:33;;;;;;;7.40;3.63;;;;;;;;;;10341795;28;20499;-62
2020/12/20 07:29:31;;;;;;;10.82;4.28;;;;;;;;;;10360282;28;20024;-63
2020/12/20 07:34:29;;;;;;;10.48;5.72;;;;;;;;;;10346192;28;20176;-64
2020/12/20 07:39:26;;;;;;;8.93;4.73;;;;;;;;;;10360603;28;20156;-65
2020/12/20 07:44:23;;;;;;;10.07;4.50;;;;;;;;;;10356361;28;20167;-65
2020/12/20 07:49:21;;;;;;;8.43;5.87;;;;;;;;;;10359554;28;20043;-64
2020/12/20 07:54:19;;;;;;;10.48;6.28;;;;;;;;;;10350317;28;20627;-62
2020/12/20 07:59:17;;;;;;;10.77;6.73;;;;;;;;;;10346376;28;20033;-64
2020/12/20 08:04:19;;;;;;;10.32;6.28;;;;;;;;;;10358385;28;20681;-63
2020/12/20 08:09:20;;;;;;;9.68;5.75;;;;;;;;;;10356715;28;20047;-66
2020/12/20 08:14:19;;;;;;;10.82;5.95;;;;;;;;;;10353326;28;20037;-65
2020/12/20 08:19:18;;;;;;;11.32;5.00;;;;;;;;;;10342079;28;20049;-65
2020/12/20 08:24:17;;;;;;;14.15;6.60;;;;;;;;;;10352715;28;20441;-66
2020/12/20 08:29:17;;;;;;;11.02;6.60;;;;;;;;;;10351728;28;20033;-66
2020/12/20 08:34:18;;;;;;;14.63;6.78;;;;;;;;;;10333323;28;20029;-65
2020/12/20 08:39:15;;;;;;;10.13;5.80;;;;;;;;;;10334253;28;20555;-65
2020/12/20 08:44:14;;;;;;;12.13;5.77;;;;;;;;;;10360352;28;20052;-64
2020/12/20 08:49:21;;;;;;;14.75;6.20;;;;;;;;;;10349738;28;20055;-64
2020/12/20 08:54:25;;;;;;;8.45;5.63;;;;;;;;;;10357472;28;20410;-66
2020/12/20 08:59:42;;;;;;;11.38;6.43;;;;;;;;;;10368290;28;20102;-66
2020/12/20 09:04:42;;;;;;;10.50;5.95;;;;;;;;;;10361816;28;20037;-65
2020/12/20 09:09:40;;;;;;;13.85;6.65;;;;;;;;;;10361299;28;20109;-65
2020/12/20 09:14:38;;;;;;;8.17;5.57;;;;;;;;;;10350011;28;20039;-65
2020/12/20 09:19:35;;;;;;;10.23;5.97;;;;;;;;;;10323563;28;20061;-65
2020/12/20 09:24:44;;;;;;;8.40;5.27;;;;;;;;;;10333524;28;20109;-64
2020/12/20 09:29:49;;;;;;;12.00;4.88;;;;;;;;;;10359293;28;20437;-65
2020/12/20 09:34:47;;;;;;;17.50;6.30;;;;;;;;;;10365811;28;20055;-65
2020/12/20 09:39:57;;;;;;;10.20;4.93;;;;;;;;;;10368886;28;20040;-65
2020/12/20 09:44:54;;;;;;;8.18;6.15;;;;;;;;;;10365842;28;20034;-65
2020/12/20 09:49:52;;;;;;;12.77;6.53;;;;;;;;;;10361638;28;20037;-64
2020/12/20 09:54:49;;;;;;;10.73;5.57;;;;;;;;;;10365979;28;20090;-65
2020/12/20 09:59:46;;;;;;;9.00;5.13;;;;;;;;;;10365139;28;20410;-65
2020/12/20 10:04:44;;;;;;;9.63;4.90;;;;;;;;;;10355913;28;20040;-65
2020/12/20 10:09:41;;;;;;;7.43;4.47;;;;;;;;;;10360302;28;20044;-66
2020/12/20 10:14:39;;;;;;;10.33;5.27;;;;;;;;;;10362373;28;20060;-63
2020/12/20 10:19:36;;;;;;;8.97;5.17;;;;;;;;;;10350880;28;20138;-65
2020/12/20 10:24:34;;;;;;;7.17;4.07;;;;;;;;;;10362116;28;20767;-63
2020/12/20 10:29:32;;;;;;;9.70;5.25;;;;;;;;;;10331582;28;20305;-65
2020/12/20 10:34:29;;;;;;;11.43;6.03;;;;;;;;;;10357196;28;20384;-64
2020/12/20 10:39:27;;;;;;;8.97;5.10;;;;;;;;;;10360189;28;20042;-64
2020/12/20 10:44:25;;;;;;;10.07;5.27;;;;;;;;;;10351309;28;20087;-64
2020/12/20 10:49:22;;;;;;;9.57;5.33;;;;;;;;;;10347583;28;20036;-62
2020/12/20 10:54:20;;;;;;;9.93;5.47;;;;;;;;;;10350106;28;20028;-63
2020/12/20 10:59:18;;;;;;;11.10;4.90;;;;;;;;;;10349594;28;20051;-63
2020/12/20 11:04:15;;;;;;;10.87;5.83;;;;;;;;;;10372118;28;20036;-63
2020/12/20 11:09:12;;;;;;;10.50;6.03;;;;;;;;;;10364246;28;20032;-62
2020/12/20 11:14:10;;;;;;;11.27;5.53;;;;;;;;;;10354423;28;20036;-63
2020/12/20 11:19:07;;;;;;;8.23;5.20;;;;;;;;;;10366789;28;20040;-63
2020/12/20 11:24:05;;;;;;;11.83;4.80;;;;;;;;;;10360739;28;20040;-63
2020/12/20 11:29:03;;;;;;;8.93;5.00;;;;;;;;;;10353517;28;20510;-62
2020/12/20 11:34:00;;;;;;;9.97;4.97;;;;;;;;;;10354250;28;20278;-63
2020/12/20 11:38:57;;;;;;;10.20;5.37;;;;;;;;;;10355285;28;20032;-64
2020/12/20 11:43:55;;;;;;;8.30;4.13;;;;;;;;;;10339937;28;20059;-62
2020/12/20 11:48:52;;;;;;;8.40;4.43;;;;;;;;;;10358885;28;20031;-65
2020/12/20 11:53:50;;;;;;;8.77;4.23;;;;;;;;;;10349861;28;20037;-63
2020/12/20 11:58:48;;;;;;;5.40;4.43;;;;;;;;;;10352704;28;20040;-65
2020/12/20 12:03:45;;;;;;;11.83;4.87;;;;;;;;;;10359023;28;20056;-63
2020/12/20 12:08:44;;;;;;;8.27;4.20;;;;;;;;;;10349458;28;20105;-64
2020/12/20 12:13:41;;;;;;;7.35;4.88;;;;;;;;;;10357845;28;20675;-63
2020/12/20 12:18:39;;;;;;;10.00;4.83;;;;;;;;;;10356281;28;20418;-63
2020/12/20 12:23:36;;;;;;;8.77;5.13;;;;;;;;;;10350105;28;20053;-63
2020/12/20 12:28:33;;;;;;;9.77;4.90;;;;;;;;;;10356815;28;20041;-63
2020/12/20 12:33:31;;;;;;;7.03;3.77;;;;;;;;;;10340599;28;20438;-64
2020/12/20 12:38:28;;;;;;;8.00;4.40;;;;;;;;;;10316414;28;20850;-63
2020/12/20 12:43:26;;;;;;;8.33;5.07;;;;;;;;;;10323579;28;20037;-62
2020/12/20 12:48:23;;;;;;;9.40;4.30;;;;;;;;;;10364358;28;20119;-63
2020/12/20 12:53:20;;;;;;;12.50;4.67;;;;;;;;;;10366669;28;20050;-64
2020/12/20 12:58:18;;;;;;;13.63;5.17;;;;;;;;;;10364742;28;20012;-61
2020/12/20 13:03:15;;;;;;;9.03;4.30;;;;;;;;;;10356932;28;20036;-63
2020/12/20 13:08:12;;;;;;;9.10;4.53;;;;;;;;;;10366760;28;20066;-63
2020/12/20 13:13:10;;;;;;;10.07;4.10;;;;;;;;;;10352472;28;20096;-63
2020/12/20 13:18:07;;;;;;;9.90;4.70;;;;;;;;;;10363536;28;20024;-63
2020/12/20 13:23:05;;;;;;;5.83;3.77;;;;;;;;;;10367084;28;20024;-63
2020/12/20 13:28:02;;;;;;;3.77;3.37;;;;;;;;;;10344926;28;20031;-64
2020/12/20 13:33:00;;;;;;;7.70;3.67;;;;;;;;;;10334632;28;20170;-63
2020/12/20 13:37:58;;;;;;;7.03;3.07;;;;;;;;;;10364053;28;20561;-63
2020/12/20 13:42:55;;;;;;;7.40;4.45;;;;;;;;;;10358726;28;20028;-62
2020/12/20 13:47:53;;;;;;;9.13;4.60;;;;;;;;;;10356465;28;20060;-62
2020/12/20 13:52:51;;;;;;;6.97;4.20;;;;;;;;;;10360746;28;20238;-61
2020/12/20 13:57:48;;;;;;;6.73;3.80;;;;;;;;;;10361674;28;20039;-61
2020/12/20 14:02:45;;;;;;;7.63;3.83;;;;;;;;;;10349323;28;20042;-62
2020/12/20 14:07:43;;;;;;;7.40;3.90;;;;;;;;;;10352412;28;20041;-62
2020/12/20 14:12:41;;;;;;;8.60;4.47;;;;;;;;;;10362091;28;20541;-62
2020/12/20 14:17:38;;;;;;;7.67;3.90;;;;;;;;;;10351282;28;20037;-61
2020/12/20 14:22:36;;;;;;;7.00;3.70;;;;;;;;;;10352484;28;20041;-62
2020/12/20 14:27:33;;;;;;;6.70;4.23;;;;;;;;;;10361090;28;20538;-62
2020/12/20 14:32:33;;;;;;;3.77;2.87;;;;;;;;;;10351600;28;20445;-63
2020/12/20 14:37:35;;;;;;;10.77;5.60;;;;;;;;;;10345664;28;20037;-61
2020/12/20 14:42:32;;;;;;;7.25;4.22;;;;;;;;;;10348497;28;20037;-61
2020/12/20 14:47:29;;;;;;;10.07;5.87;;;;;;;;;;10365922;28;20414;-63
2020/12/20 14:52:27;;;;;;;8.63;4.07;;;;;;;;;;10335060;28;20035;-62
2020/12/20 14:57:25;;;;;;;10.47;4.47;;;;;;;;;;10361680;28;20459;-63
2020/12/20 15:02:22;;;;;;;9.52;4.78;;;;;;;;;;10328279;28;20556;-61
2020/12/20 15:07:20;;;;;;;8.27;4.47;;;;;;;;;;10353502;28;20376;-63
2020/12/20 15:12:17;;;;;;;13.10;6.20;;;;;;;;;;10349766;28;20040;-63
2020/12/20 15:17:15;;;;;;;6.43;3.17;;;;;;;;;;10331754;28;20035;-63
2020/12/20 15:22:12;;;;;;;3.97;3.57;;;;;;;;;;10343523;28;20600;-62
2020/12/20 15:27:10;;;;;;;3.17;2.87;;;;;;;;;;10358970;28;20086;-63
2020/12/20 15:32:07;;;;;;;10.17;5.57;;;;;;;;;;10363655;28;20666;-62
2020/12/20 15:37:04;;;;;;;10.07;3.87;;;;;;;;;;10320149;28;20418;-63
2020/12/20 15:42:02;;;;;;;8.63;5.70;;;;;;;;;;10328083;28;20506;-62
2020/12/20 15:47:01;;;;;;;9.65;4.65;;;;;;;;;;10310537;28;20017;-62
2020/12/20 15:51:59;;;;;;;12.30;5.15;;;;;;;;;;10304691;28;20038;-63
2020/12/20 15:56:56;;;;;;;14.30;6.27;;;;;;;;;;10316810;28;20040;-62
2020/12/20 16:01:54;;;;;;;8.63;5.73;;;;;;;;;;10329941;28;20041;-62
2020/12/20 16:06:51;;;;;;;1.90;1.77;;;;;;;;;;10358041;28;20036;-63
2020/12/20 16:11:49;;;;;;;8.93;3.77;;;;;;;;;;10339925;28;20052;-63
2020/12/20 16:16:47;;;;;;;7.20;3.85;;;;;;;;;;10323681;28;20068;-62
2020/12/20 16:21:44;;;;;;;8.83;4.07;;;;;;;;;;10310708;28;20510;-63
2020/12/20 16:26:42;;;;;;;9.63;5.53;;;;;;;;;;10350985;28;20041;-62
2020/12/20 16:31:43;;;;;;;13.83;6.33;;;;;;;;;;10353407;28;20410;-63
2020/12/20 16:36:42;;;;;;;14.25;7.80;;;;;;;;;;10354476;28;20033;-63
2020/12/20 16:41:40;;;;;;;15.45;8.10;;;;;;;;;;10366195;28;20068;-62
2020/12/20 16:46:38;;;;;;;12.23;6.57;;;;;;;;;;10360845;28;20594;-63
2020/12/20 16:51:36;;;;;;;7.00;3.70;;;;;;;;;;10357062;28;20060;-63
2020/12/20 16:56:34;;;;;;;9.35;3.90;;;;;;;;;;10365437;28;20036;-62
2020/12/20 17:01:32;;;;;;;13.13;6.10;;;;;;;;;;10360516;28;20290;-62
2020/12/20 17:06:30;;;;;;;6.43;4.93;;;;;;;;;;10357010;28;20044;-64
2020/12/20 17:11:27;;;;;;;11.20;5.32;;;;;;;;;;10344858;28;20035;-60
2020/12/20 17:16:25;;;;;;;15.83;8.40;;;;;;;;;;10361905;28;20613;-62
2020/12/20 17:21:23;;;;;;;10.40;6.20;;;;;;;;;;10367152;28;20115;-64
2020/12/20 17:26:22;;;;;;;14.05;6.25;;;;;;;;;;10345579;28;20089;-65
2020/12/20 17:31:22;;;;;;;15.15;6.68;;;;;;;;;;10331352;28;20462;-61
2020/12/20 17:36:22;;;;;;;21.73;8.43;;;;;;;;;;10363219;28;20127;-62
2020/12/20 17:41:24;;;;;;;13.25;5.57;;;;;;;;;;10371959;28;20090;-63
2020/12/20 17:46:22;;;;;;;9.93;5.63;;;;;;;;;;10356580;28;20063;-63
2020/12/20 17:51:19;;;;;;;11.07;5.83;;;;;;;;;;10336806;28;20522;-64
2020/12/20 17:56:17;;;;;;;9.87;5.33;;;;;;;;;;10317201;28;20025;-61
2020/12/20 18:01:15;;;;;;;10.40;5.30;;;;;;;;;;10341947;28;20040;-62
2020/12/20 18:06:12;;;;;;;12.80;4.80;;;;;;;;;;10356385;28;20036;-64
2020/12/20 18:11:09;;;;;;;11.33;6.40;;;;;;;;;;10342125;28;20540;-62
2020/12/20 18:16:07;;;;;;;8.90;5.53;;;;;;;;;;10354205;28;20040;-63
2020/12/20 18:21:08;;;;;;;9.10;6.10;;;;;;;;;;10336232;28;20127;-61
2020/12/20 18:26:06;;;;;;;9.30;5.47;;;;;;;;;;10338189;28;20037;-61
2020/12/20 18:31:04;;;;;;;6.95;4.57;;;;;;;;;;10344281;28;20055;-61
2020/12/20 18:36:01;;;;;;;11.30;5.73;;;;;;;;;;10366461;28;20032;-63
2020/12/20 18:40:59;;;;;;;4.10;3.07;;;;;;;;;;10366125;28;20129;-62
2020/12/20 18:46:03;;;;;;;6.80;3.87;;;;;;;;;;10358587;28;20070;-63
2020/12/20 18:51:04;;;;;;;7.60;4.18;;;;;;;;;;10363645;28;20037;-63
2020/12/20 18:56:02;;;;;;;9.93;4.38;;;;;;;;;;10346586;28;20033;-62
2020/12/20 19:00:59;;;;;;;5.95;3.33;;;;;;;;;;10333733;28;20048;-63
2020/12/20 19:05:57;;;;;;;6.37;3.00;;;;;;;;;;10352221;28;20040;-63
2020/12/20 19:10:54;;;;;;;9.20;3.80;;;;;;;;;;10325081;28;20029;-64
2020/12/20 19:15:52;;;;;;;12.37;5.33;;;;;;;;;;10344483;28;20029;-62
2020/12/20 19:20:49;;;;;;;14.90;6.87;;;;;;;;;;10338716;28;20417;-63
2020/12/20 19:25:49;;;;;;;21.73;7.93;;;;;;;;;;10337878;28;20157;-62
2020/12/20 19:30:47;;;;;;;16.52;7.63;;;;;;;;;;10332974;28;20123;-64
2020/12/20 19:35:44;;;;;;;17.00;8.37;;;;;;;;;;10357569;28;20046;-61
2020/12/20 19:40:42;;;;;;;19.90;7.73;;;;;;;;;;10342523;28;20037;-63
2020/12/20 19:45:39;;;;;;;13.57;7.70;;;;;;;;;;10323156;28;20037;-63
2020/12/20 19:50:37;;;;;;;17.93;8.07;;;;;;;;;;10352352;28;20041;-62
2020/12/20 19:55:35;;;;;;;23.77;9.17;;;;;;;;;;10373413;28;20810;-63
2020/12/20 20:00:32;;;;;;;18.73;8.13;;;;;;;;;;10365405;28;20063;-63
2020/12/20 20:05:30;;;;;;;14.43;6.07;;;;;;;;;;10354965;28;20753;-63
2020/12/20 20:10:27;;;;;;;7.73;4.90;;;;;;;;;;10352114;28;20046;-60
2020/12/20 20:15:25;;;;;;;8.93;4.20;;;;;;;;;;10357474;28;20407;-63
2020/12/20 20:20:22;;;;;;;12.20;6.00;;;;;;;;;;10365375;28;20045;-63
2020/12/20 20:25:20;;;;;;;11.63;5.33;;;;;;;;;;10351656;28;20164;-63
2020/12/20 20:30:17;;;;;;;15.70;5.43;;;;;;;;;;10316331;28;20548;-62
2020/12/20 20:35:15;;;;;;;17.47;5.60;;;;;;;;;;10321086;28;20424;-63
2020/12/20 20:40:15;;;;;;;12.10;5.90;;;;;;;;;;10327491;28;20033;-64
2020/12/20 20:45:13;;;;;;;13.50;6.68;;;;;;;;;;10346220;28;20040;-62
2020/12/20 20:50:11;;;;;;;11.37;7.37;;;;;;;;;;10344069;28;21409;-61
2020/12/20 20:55:08;;;;;;;24.70;5.37;;;;;;;;;;10359905;28;20029;-62
2020/12/20 21:00:06;;;;;;;14.80;6.13;;;;;;;;;;10360821;28;20037;-61
2020/12/20 21:05:04;;;;;;;11.18;5.55;;;;;;;;;;10346713;28;20033;-63
2020/12/20 21:10:01;;;;;;;15.90;5.30;;;;;;;;;;10319323;28;20052;-63
2020/12/20 21:14:59;;;;;;;8.33;4.13;;;;;;;;;;10318908;28;20036;-62
2020/12/20 21:19:56;;;;;;;9.40;4.60;;;;;;;;;;10359438;28;20064;-60
2020/12/20 21:24:54;;;;;;;14.90;6.57;;;;;;;;;;10364542;28;20036;-60
2020/12/20 21:29:51;;;;;;;20.37;7.07;;;;;;;;;;10339098;28;20402;-59
2020/12/20 21:34:48;;;;;;;15.63;6.10;;;;;;;;;;10340090;28;20029;-61
2020/12/20 21:39:46;;;;;;;10.23;5.07;;;;;;;;;;10345191;28;20042;-62
2020/12/20 21:44:43;;;;;;;10.57;5.20;;;;;;;;;;10344207;28;20045;-61
2020/12/20 21:49:40;;;;;;;10.93;3.90;;;;;;;;;;10353702;28;20044;-60
2020/12/20 21:54:38;;;;;;;12.57;4.87;;;;;;;;;;10348779;28;20028;-62
2020/12/20 21:59:35;;;;;;;14.27;4.67;;;;;;;;;;10347033;28;20033;-63
2020/12/20 22:04:33;;;;;;;10.63;3.93;;;;;;;;;;10350381;28;20041;-62
2020/12/20 22:09:30;;;;;;;16.47;3.27;;;;;;;;;;10318757;28;20162;-62
2020/12/20 22:14:27;;;;;;;12.27;3.17;;;;;;;;;;10324686;28;20147;-63
2020/12/20 22:19:25;;;;;;;4.70;2.20;;;;;;;;;;10315328;28;20036;-62
2020/12/20 22:24:22;;;;;;;4.93;3.40;;;;;;;;;;10314326;28;20037;-64
2020/12/20 22:29:20;;;;;;;6.00;3.20;;;;;;;;;;10349302;28;20017;-64
2020/12/20 22:34:17;;;;;;;6.43;3.37;;;;;;;;;;10352154;28;20025;-63
2020/12/20 22:39:16;;;;;;;4.90;3.30;;;;;;;;;;10361452;28;20055;-65
2020/12/20 22:44:13;;;;;;;13.85;5.28;;;;;;;;;;10369708;28;20106;-64
2020/12/20 22:49:11;;;;;;;12.47;4.10;;;;;;;;;;10335179;28;20017;-61
2020/12/20 22:54:09;;;;;;;5.97;4.43;;;;;;;;;;10347700;28;20028;-64
2020/12/20 22:59:06;;;;;;;16.10;6.43;;;;;;;;;;10318435;28;20028;-64
2020/12/20 23:04:03;;;;;;;10.37;4.60;;;;;;;;;;10337041;28;20127;-63
2020/12/20 23:09:01;;;;;;;12.20;4.30;;;;;;;;;;10325211;28;20520;-62
2020/12/20 23:13:59;;;;;;;12.27;4.63;;;;;;;;;;10314491;28;20132;-63
2020/12/20 23:18:56;;;;;;;7.70;4.13;;;;;;;;;;10360689;28;20033;-62
2020/12/20 23:23:54;;;;;;;8.40;4.20;;;;;;;;;;10350271;28;20064;-64
2020/12/20 23:28:53;;;;;;;9.35;4.95;;;;;;;;;;10358042;28;20040;-62
2020/12/20 23:33:50;;;;;;;16.00;4.43;;;;;;;;;;10339942;28;20029;-65
2020/12/20 23:38:48;;;;;;;12.83;3.87;;;;;;;;;;10362662;28;20047;-65
2020/12/20 23:43:45;;;;;;;9.77;4.07;;;;;;;;;;10340571;28;20762;-63
2020/12/20 23:48:44;;;;;;;9.37;3.07;;;;;;;;;;10353843;28;20035;-66
2020/12/20 23:53:41;;;;;;;;;;;;;;;;;;10356169;28;20415;-65
2020/12/20 23:58:39;;;;;;;9.45;3.58;;;;;;;;;;10362460;28;19916;-65
